SCC: Trois-Rivieres: GS qualifying times

Pos Num Class Team Time Gap To 1st Speed --- --- ----- ------------------------------ ---------- ------- ------- ------- 1. 55 GS Hyper Sport 1:12.149 75.893 2. 97...

Pos Num Class Team                                 Time     Gap  To 1st   Speed
--- --- ----- ------------------------------ ---------- ------- ------- -------
 1.  55 GS    Hyper Sport                      1:12.149                  75.893
 2.  97 GS    Turner Motorsport                1:12.529   0.380   0.380  75.495
 3. 137 GS    JBS Motorsports                  1:12.564   0.035   0.415  75.459
 4.  37 GS    JBS Racing                       1:12.689   0.125   0.540  75.329
 5.  82 GS    BRG/Group 88 Motorsports         1:12.921   0.232   0.772  75.089
 6.  96 GS    Turner Motorsport                1:12.922   0.001   0.773  75.088
 7.  42 GS    TRG                              1:12.974   0.052   0.825  75.035
 8.  38 GS    BGB Motorsports                  1:12.988   0.014   0.839  75.021
 9.  79 GS    Kinetic Motorsports              1:13.018   0.030   0.869  74.990
10.  83 GS    BGB Motorsports                  1:13.102   0.084   0.953  74.904
11.  09 GS    Automatic Racing                 1:13.136   0.034   0.987  74.869
12.  41 GS    TRG                              1:13.175   0.039   1.026  74.829
13.  39 GS    TRG                              1:13.212   0.037   1.063  74.791
14.   4 GS    Blackforest Motorsports          1:13.314   0.102   1.165  74.687
15.   5 GS    Blackforest Motorsports          1:13.455   0.141   1.306  74.544
16.  52 GS    Rehagen Racing                   1:13.522   0.067   1.373  74.476
17.  49 GS    Marcus Motorsports               1:13.804   0.282   1.655  74.191
18.  99 GS    Automatic Racing                 1:13.830   0.026   1.681  74.165
19.  40 GS    TRG                              1:14.375   0.545   2.226  73.622
20. 154 GS    Rehagen Racing                   1:14.380   0.005   2.231  73.617
21.  91 GS    Automatic Racing                 1:14.408   0.028   2.259  73.589
22.  54 GS    Hyper Sport                      1:14.615   0.207   2.466  73.385
23.  59 GS    Rehagen Racing                   1:14.671   0.056   2.522  73.330
24.  88 GS    Ranger Sports Racing             1:14.684   0.013   2.535  73.317
25.  89 GS    Ranger Sports Racing             1:14.701   0.017   2.552  73.300
26.  25 GS    Fiorano/C-MAX Racing             1:14.836   0.135   2.687  73.168
27. 150 GS    Rehagen Racing                   1:15.546   0.710   3.397  72.480
28.  90 GS    Automatic Racing                 1:16.869   1.323   4.720  71.233

Be part of something big

Write a comment
Show comments
About this article
Series Grand-Am
Teams Kinetic Motorsports , Rehagen Racing , Turner Motorsport , Automatic Racing